sensor_id;sensor_type;location;lat;lon;timestamp;pressure;altitude;pressure_sealevel;temperature;humidity
51617;BME280;37697;52.588;13.394;2022-08-03T00:04:37;101226.06;;;18.07;62.30
51617;BME280;37697;52.588;13.394;2022-08-03T00:09:38;101223.70;;;18.03;62.39
51617;BME280;37697;52.588;13.394;2022-08-03T00:14:38;101220.92;;;18.03;62.41
51617;BME280;37697;52.588;13.394;2022-08-03T00:19:39;101216.27;;;18.01;62.54
51617;BME280;37697;52.588;13.394;2022-08-03T00:24:40;101212.77;;;17.98;62.70
51617;BME280;37697;52.588;13.394;2022-08-03T00:29:40;101206.30;;;18.00;62.94
51617;BME280;37697;52.588;13.394;2022-08-03T00:34:41;101209.55;;;18.02;63.14
51617;BME280;37697;52.588;13.394;2022-08-03T00:39:42;101199.46;;;18.04;63.13
51617;BME280;37697;52.588;13.394;2022-08-03T00:44:44;101196.43;;;18.09;63.23
51617;BME280;37697;52.588;13.394;2022-08-03T00:49:45;101201.20;;;18.08;63.42
51617;BME280;37697;52.588;13.394;2022-08-03T00:54:46;101197.36;;;18.07;63.49
51617;BME280;37697;52.588;13.394;2022-08-03T00:59:46;101196.09;;;18.04;63.27
51617;BME280;37697;52.588;13.394;2022-08-03T01:04:47;101193.77;;;18.06;63.44
51617;BME280;37697;52.588;13.394;2022-08-03T01:09:59;101185.16;;;18.05;63.44
51617;BME280;37697;52.588;13.394;2022-08-03T01:15:16;101179.37;;;18.04;63.49
51617;BME280;37697;52.588;13.394;2022-08-03T01:20:33;101170.08;;;18.06;63.44
51617;BME280;37697;52.588;13.394;2022-08-03T01:31:05;101173.41;;;17.93;63.62
51617;BME280;37697;52.588;13.394;2022-08-03T01:36:17;101171.30;;;17.90;63.71
51617;BME280;37697;52.588;13.394;2022-08-03T01:41:32;101167.80;;;17.87;63.96
51617;BME280;37697;52.588;13.394;2022-08-03T01:46:36;101164.80;;;17.86;64.10
51617;BME280;37697;52.588;13.394;2022-08-03T01:51:41;101166.19;;;17.86;64.08
51617;BME280;37697;52.588;13.394;2022-08-03T01:56:43;101162.95;;;17.90;64.26
51617;BME280;37697;52.588;13.394;2022-08-03T02:01:45;101160.16;;;17.90;64.20
51617;BME280;37697;52.588;13.394;2022-08-03T02:06:47;101162.02;;;17.86;64.47
51617;BME280;37697;52.588;13.394;2022-08-03T02:11:50;101156.66;;;17.87;64.52
51617;BME280;37697;52.588;13.394;2022-08-03T02:16:53;101157.72;;;17.89;64.55
51617;BME280;37697;52.588;13.394;2022-08-03T02:21:54;101157.12;;;17.89;64.79
51617;BME280;37697;52.588;13.394;2022-08-03T02:26:57;101156.44;;;17.86;64.90
51617;BME280;37697;52.588;13.394;2022-08-03T02:31:59;101155.73;;;17.89;64.91
51617;BME280;37697;52.588;13.394;2022-08-03T02:37:04;101158.89;;;17.88;64.98
51617;BME280;37697;52.588;13.394;2022-08-03T02:42:09;101158.43;;;17.92;65.01
51617;BME280;37697;52.588;13.394;2022-08-03T02:47:12;101157.84;;;17.92;65.10
51617;BME280;37697;52.588;13.394;2022-08-03T02:52:16;101150.07;;;17.92;64.96
51617;BME280;37697;52.588;13.394;2022-08-03T02:57:19;101164.22;;;17.93;64.87
51617;BME280;37697;52.588;13.394;2022-08-03T03:02:21;101161.44;;;17.93;64.68
51617;BME280;37697;52.588;13.394;2022-08-03T03:07:22;101165.39;;;17.92;64.82
51617;BME280;37697;52.588;13.394;2022-08-03T03:12:24;101167.05;;;17.84;64.93
51617;BME280;37697;52.588;13.394;2022-08-03T03:17:26;101166.92;;;17.80;64.94
51617;BME280;37697;52.588;13.394;2022-08-03T03:22:28;101164.60;;;17.76;64.89
51617;BME280;37697;52.588;13.394;2022-08-03T03:27:32;101159.95;;;17.74;65.00
51617;BME280;37697;52.588;13.394;2022-08-03T03:32:33;101161.81;;;17.70;64.91
51617;BME280;37697;52.588;13.394;2022-08-03T03:37:36;101157.92;;;17.62;64.94
51617;BME280;37697;52.588;13.394;2022-08-03T03:42:36;101159.44;;;17.60;64.98
51617;BME280;37697;52.588;13.394;2022-08-03T03:47:37;101157.44;;;17.54;65.03
51617;BME280;37697;52.588;13.394;2022-08-03T03:52:38;101161.57;;;17.48;65.08
51617;BME280;37697;52.588;13.394;2022-08-03T03:57:39;101157.26;;;17.44;65.03
51617;BME280;37697;52.588;13.394;2022-08-03T04:02:40;101159.33;;;17.41;65.13
51617;BME280;37697;52.588;13.394;2022-08-03T04:07:57;101152.34;;;17.35;65.28
51617;BME280;37697;52.588;13.394;2022-08-03T04:13:17;101159.39;;;17.33;65.47
51617;BME280;37697;52.588;13.394;2022-08-03T04:18:20;101156.97;;;17.31;65.64
51617;BME280;37697;52.588;13.394;2022-08-03T04:23:24;101161.15;;;17.31;65.78
51617;BME280;37697;52.588;13.394;2022-08-03T04:28:26;101163.01;;;17.33;66.00
51617;BME280;37697;52.588;13.394;2022-08-03T04:33:28;101165.59;;;17.38;66.03
51617;BME280;37697;52.588;13.394;2022-08-03T04:38:38;101159.91;;;17.41;66.33
51617;BME280;37697;52.588;13.394;2022-08-03T04:43:39;101164.34;;;17.42;66.30
51617;BME280;37697;52.588;13.394;2022-08-03T04:48:41;101171.45;;;17.52;66.37
51617;BME280;37697;52.588;13.394;2022-08-03T04:53:42;101174.30;;;18.18;65.36
51617;BME280;37697;52.588;13.394;2022-08-03T04:58:44;101173.92;;;18.97;64.61
51617;BME280;37697;52.588;13.394;2022-08-03T05:03:47;101168.03;;;19.39;65.25
51617;BME280;37697;52.588;13.394;2022-08-03T05:08:48;101167.30;;;19.88;64.89
51617;BME280;37697;52.588;13.394;2022-08-03T05:13:48;101170.81;;;20.30;64.47
51617;BME280;37697;52.588;13.394;2022-08-03T05:18:49;101172.50;;;20.88;63.35
51617;BME280;37697;52.588;13.394;2022-08-03T05:23:49;101173.06;;;21.39;62.42
51617;BME280;37697;52.588;13.394;2022-08-03T05:28:50;101171.46;;;21.57;62.15
51617;BME280;37697;52.588;13.394;2022-08-03T05:33:53;101178.85;;;21.66;61.79
51617;BME280;37697;52.588;13.394;2022-08-03T05:38:54;101175.81;;;21.65;61.78
51617;BME280;37697;52.588;13.394;2022-08-03T05:43:54;101172.27;;;21.77;61.85
51617;BME280;37697;52.588;13.394;2022-08-03T05:48:55;101183.63;;;22.04;60.48
51617;BME280;37697;52.588;13.394;2022-08-03T05:53:56;101181.51;;;22.30;59.49
51617;BME280;37697;52.588;13.394;2022-08-03T05:58:56;101189.70;;;22.76;57.29
51617;BME280;37697;52.588;13.394;2022-08-03T06:03:58;101188.83;;;23.08;56.78
51617;BME280;37697;52.588;13.394;2022-08-03T06:08:59;101193.85;;;23.22;55.59
51617;BME280;37697;52.588;13.394;2022-08-03T06:13:59;101195.53;;;23.26;53.44
51617;BME280;37697;52.588;13.394;2022-08-03T06:19:00;101189.45;;;23.38;53.83
51617;BME280;37697;52.588;13.394;2022-08-03T06:24:01;101192.02;;;23.63;52.61
51617;BME280;37697;52.588;13.394;2022-08-03T06:29:02;101183.83;;;23.81;51.90
51617;BME280;37697;52.588;13.394;2022-08-03T06:34:04;101178.74;;;23.94;51.18
51617;BME280;37697;52.588;13.394;2022-08-03T06:39:05;101182.50;;;24.06;49.95
51617;BME280;37697;52.588;13.394;2022-08-03T06:44:07;101180.82;;;24.18;49.30
51617;BME280;37697;52.588;13.394;2022-08-03T06:49:08;101182.02;;;24.37;48.98
51617;BME280;37697;52.588;13.394;2022-08-03T06:54:08;101178.42;;;24.61;48.96
51617;BME280;37697;52.588;13.394;2022-08-03T06:59:10;101179.00;;;24.85;48.56
51617;BME280;37697;52.588;13.394;2022-08-03T07:04:11;101181.97;;;25.03;47.24
51617;BME280;37697;52.588;13.394;2022-08-03T07:09:11;101178.45;;;25.20;46.56
51617;BME280;37697;52.588;13.394;2022-08-03T07:14:12;101181.98;;;25.38;45.81
51617;BME280;37697;52.588;13.394;2022-08-03T07:19:13;101177.86;;;25.56;46.06
51617;BME280;37697;52.588;13.394;2022-08-03T07:24:14;101182.34;;;25.74;44.72
51617;BME280;37697;52.588;13.394;2022-08-03T07:29:14;101180.78;;;25.84;44.77
51617;BME280;37697;52.588;13.394;2022-08-03T07:34:15;101177.62;;;25.97;43.59
51617;BME280;37697;52.588;13.394;2022-08-03T07:39:16;101180.27;;;26.10;43.46
51617;BME280;37697;52.588;13.394;2022-08-03T07:44:20;101175.86;;;26.23;42.88
51617;BME280;37697;52.588;13.394;2022-08-03T07:49:21;101172.44;;;26.35;42.93
51617;BME280;37697;52.588;13.394;2022-08-03T07:54:21;101172.87;;;26.55;42.87
51617;BME280;37697;52.588;13.394;2022-08-03T07:59:22;101175.71;;;26.80;41.95
51617;BME280;37697;52.588;13.394;2022-08-03T08:04:23;101183.36;;;27.01;41.19
51617;BME280;37697;52.588;13.394;2022-08-03T08:09:23;101181.50;;;27.20;41.29
51617;BME280;37697;52.588;13.394;2022-08-03T08:14:24;101174.38;;;27.46;40.81
51617;BME280;37697;52.588;13.394;2022-08-03T08:19:25;101172.89;;;27.64;40.15
51617;BME280;37697;52.588;13.394;2022-08-03T08:24:27;101180.30;;;27.80;39.26
51617;BME280;37697;52.588;13.394;2022-08-03T08:29:29;101173.73;;;28.05;39.07
51617;BME280;37697;52.588;13.394;2022-08-03T08:34:30;101181.44;;;28.30;38.99
51617;BME280;37697;52.588;13.394;2022-08-03T08:39:31;101176.39;;;28.60;37.29
51617;BME280;37697;52.588;13.394;2022-08-03T08:44:31;101181.73;;;28.73;37.77
51617;BME280;37697;52.588;13.394;2022-08-03T08:49:34;101168.30;;;29.03;37.35
51617;BME280;37697;52.588;13.394;2022-08-03T08:54:37;101167.89;;;29.24;36.37
51617;BME280;37697;52.588;13.394;2022-08-03T08:59:43;101175.63;;;29.39;36.06
51617;BME280;37697;52.588;13.394;2022-08-03T09:04:44;101170.44;;;29.64;35.76
51617;BME280;37697;52.588;13.394;2022-08-03T09:09:47;101170.38;;;29.87;35.48
51617;BME280;37697;52.588;13.394;2022-08-03T09:14:50;101165.75;;;30.12;34.42
51617;BME280;37697;52.588;13.394;2022-08-03T09:20:03;101173.39;;;30.31;33.87
51617;BME280;37697;52.588;13.394;2022-08-03T09:25:07;101169.20;;;30.39;33.75
51617;BME280;37697;52.588;13.394;2022-08-03T09:30:15;101157.23;;;30.51;33.85
51617;BME280;37697;52.588;13.394;2022-08-03T09:35:18;101159.53;;;30.72;33.08
51617;BME280;37697;52.588;13.394;2022-08-03T09:40:36;101153.95;;;30.88;32.55
51617;BME280;37697;52.588;13.394;2022-08-03T09:45:38;101153.34;;;31.00;33.25
51617;BME280;37697;52.588;13.394;2022-08-03T09:50:54;101145.14;;;31.26;32.77
51617;BME280;37697;52.588;13.394;2022-08-03T09:56:02;101150.98;;;31.27;32.23
51617;BME280;37697;52.588;13.394;2022-08-03T10:01:04;101153.72;;;31.34;32.17
51617;BME280;37697;52.588;13.394;2022-08-03T10:06:18;101150.52;;;31.52;32.22
51617;BME280;37697;52.588;13.394;2022-08-03T10:11:32;101142.47;;;31.67;31.53
51617;BME280;37697;52.588;13.394;2022-08-03T10:16:37;101148.16;;;31.67;31.66
51617;BME280;37697;52.588;13.394;2022-08-03T10:21:41;101134.91;;;31.69;31.47
51617;BME280;37697;52.588;13.394;2022-08-03T10:26:45;101134.94;;;31.85;31.27
51617;BME280;37697;52.588;13.394;2022-08-03T10:31:47;101123.14;;;31.95;31.29
51617;BME280;37697;52.588;13.394;2022-08-03T10:36:50;101121.05;;;32.07;30.83
51617;BME280;37697;52.588;13.394;2022-08-03T10:41:57;101119.08;;;32.21;31.06
51617;BME280;37697;52.588;13.394;2022-08-03T10:46:58;101117.64;;;32.45;31.45
51617;BME280;37697;52.588;13.394;2022-08-03T10:52:02;101111.50;;;32.55;30.33
51617;BME280;37697;52.588;13.394;2022-08-03T10:57:04;101108.68;;;32.63;29.92
51617;BME280;37697;52.588;13.394;2022-08-03T11:03:00;101102.00;;;32.62;30.08
51617;BME280;37697;52.588;13.394;2022-08-03T11:07:31;101094.69;;;32.61;30.00
51617;BME280;37697;52.588;13.394;2022-08-03T11:12:32;101091.29;;;32.66;30.20
51617;BME280;37697;52.588;13.394;2022-08-03T11:17:34;101088.14;;;32.77;29.46
51617;BME280;37697;52.588;13.394;2022-08-03T11:22:49;101086.47;;;32.71;29.62
51617;BME280;37697;52.588;13.394;2022-08-03T11:33:29;101070.48;;;33.11;29.47
51617;BME280;37697;52.588;13.394;2022-08-03T11:38:30;101080.48;;;33.32;29.53
51617;BME280;37697;52.588;13.394;2022-08-03T11:48:41;101084.11;;;33.54;29.17
51617;BME280;37697;52.588;13.394;2022-08-03T11:53:52;101075.52;;;33.75;28.84
51617;BME280;37697;52.588;13.394;2022-08-03T11:58:57;101076.00;;;33.52;28.37
51617;BME280;37697;52.588;13.394;2022-08-03T12:04:03;101069.07;;;33.66;29.08
51617;BME280;37697;52.588;13.394;2022-08-03T12:09:15;101068.35;;;34.00;28.30
51617;BME280;37697;52.588;13.394;2022-08-03T12:14:17;101067.32;;;34.07;27.50
51617;BME280;37697;52.588;13.394;2022-08-03T12:19:19;101067.41;;;34.16;27.22
51617;BME280;37697;52.588;13.394;2022-08-03T12:24:20;101071.30;;;34.35;27.64
51617;BME280;37697;52.588;13.394;2022-08-03T12:29:21;101071.22;;;34.44;27.32
51617;BME280;37697;52.588;13.394;2022-08-03T12:39:52;101058.03;;;34.42;27.37
51617;BME280;37697;52.588;13.394;2022-08-03T12:44:54;101056.49;;;34.50;27.63
51617;BME280;37697;52.588;13.394;2022-08-03T12:49:54;101046.95;;;34.48;27.60
51617;BME280;37697;52.588;13.394;2022-08-03T12:54:58;101034.78;;;34.35;27.44
51617;BME280;37697;52.588;13.394;2022-08-03T13:00:09;101042.59;;;34.39;27.09
51617;BME280;37697;52.588;13.394;2022-08-03T13:05:13;101036.53;;;34.54;26.73
51617;BME280;37697;52.588;13.394;2022-08-03T13:10:29;101037.98;;;34.72;26.72
51617;BME280;37697;52.588;13.394;2022-08-03T13:15:31;101034.15;;;34.70;26.89
51617;BME280;37697;52.588;13.394;2022-08-03T13:20:32;101030.29;;;34.69;26.82
51617;BME280;37697;52.588;13.394;2022-08-03T13:25:34;101029.78;;;34.66;26.85
51617;BME280;37697;52.588;13.394;2022-08-03T13:30:34;101033.57;;;34.80;26.74
51617;BME280;37697;52.588;13.394;2022-08-03T13:35:35;101023.93;;;34.87;26.39
51617;BME280;37697;52.588;13.394;2022-08-03T13:40:36;101033.11;;;34.82;26.88
51617;BME280;37697;52.588;13.394;2022-08-03T13:45:37;101029.27;;;34.75;27.01
51617;BME280;37697;52.588;13.394;2022-08-03T13:50:38;101026.64;;;34.68;26.75
51617;BME280;37697;52.588;13.394;2022-08-03T13:55:39;101018.61;;;34.59;26.60
51617;BME280;37697;52.588;13.394;2022-08-03T14:00:40;101021.34;;;34.62;26.48
51617;BME280;37697;52.588;13.394;2022-08-03T14:05:42;101011.41;;;34.32;26.50
51617;BME280;37697;52.588;13.394;2022-08-03T14:10:43;101005.78;;;34.11;26.95
51617;BME280;37697;52.588;13.394;2022-08-03T14:15:46;101001.95;;;34.09;27.22
51617;BME280;37697;52.588;13.394;2022-08-03T14:20:47;100996.16;;;34.00;27.40
51617;BME280;37697;52.588;13.394;2022-08-03T14:25:48;100995.39;;;34.04;27.32
51617;BME280;37697;52.588;13.394;2022-08-03T14:30:51;100986.61;;;33.98;27.24
51617;BME280;37697;52.588;13.394;2022-08-03T14:35:53;100989.92;;;33.97;27.64
51617;BME280;37697;52.588;13.394;2022-08-03T14:40:54;100990.26;;;33.99;27.27
51617;BME280;37697;52.588;13.394;2022-08-03T14:45:55;100982.58;;;33.91;27.27
51617;BME280;37697;52.588;13.394;2022-08-03T14:50:56;100985.86;;;33.85;27.41
51617;BME280;37697;52.588;13.394;2022-08-03T14:55:57;100983.06;;;33.77;27.57
51617;BME280;37697;52.588;13.394;2022-08-03T15:00:57;100977.62;;;33.74;27.97
51617;BME280;37697;52.588;13.394;2022-08-03T15:05:58;100970.16;;;33.72;27.93
51617;BME280;37697;52.588;13.394;2022-08-03T15:10:59;100970.48;;;33.61;28.18
51617;BME280;37697;52.588;13.394;2022-08-03T15:16:00;100967.72;;;33.53;28.21
51617;BME280;37697;52.588;13.394;2022-08-03T15:21:00;100966.50;;;33.33;28.27
51617;BME280;37697;52.588;13.394;2022-08-03T15:26:01;100960.01;;;33.33;28.00
51617;BME280;37697;52.588;13.394;2022-08-03T15:31:02;100959.55;;;33.34;27.80
51617;BME280;37697;52.588;13.394;2022-08-03T15:36:03;100951.05;;;33.13;28.42
51617;BME280;37697;52.588;13.394;2022-08-03T15:41:04;100955.84;;;33.16;28.33
51617;BME280;37697;52.588;13.394;2022-08-03T15:46:05;100949.28;;;33.24;28.99
51617;BME280;37697;52.588;13.394;2022-08-03T15:51:06;100946.49;;;33.29;28.61
51617;BME280;37697;52.588;13.394;2022-08-03T15:56:08;100942.72;;;33.19;29.05
51617;BME280;37697;52.588;13.394;2022-08-03T16:01:10;100941.85;;;33.14;29.01
51617;BME280;37697;52.588;13.394;2022-08-03T16:06:11;100945.34;;;33.13;29.04
51617;BME280;37697;52.588;13.394;2022-08-03T16:11:13;100942.23;;;33.08;29.09
51617;BME280;37697;52.588;13.394;2022-08-03T16:16:14;100933.83;;;33.09;29.08
51617;BME280;37697;52.588;13.394;2022-08-03T16:21:14;100937.12;;;32.94;29.57
51617;BME280;37697;52.588;13.394;2022-08-03T16:26:16;100930.20;;;32.74;29.44
51617;BME280;37697;52.588;13.394;2022-08-03T16:31:17;100935.94;;;32.66;29.47
51617;BME280;37697;52.588;13.394;2022-08-03T16:36:18;100929.00;;;32.67;29.48
51617;BME280;37697;52.588;13.394;2022-08-03T16:41:18;100927.12;;;32.68;29.02
51617;BME280;37697;52.588;13.394;2022-08-03T16:46:19;100923.84;;;32.54;29.74
51617;BME280;37697;52.588;13.394;2022-08-03T16:51:20;100926.80;;;32.50;30.02
51617;BME280;37697;52.588;13.394;2022-08-03T16:56:22;100922.11;;;32.43;29.69
51617;BME280;37697;52.588;13.394;2022-08-03T17:01:23;100929.23;;;32.43;29.89
51617;BME280;37697;52.588;13.394;2022-08-03T17:06:25;100923.98;;;32.42;29.93
51617;BME280;37697;52.588;13.394;2022-08-03T17:11:26;100928.84;;;32.28;30.59
51617;BME280;37697;52.588;13.394;2022-08-03T17:16:27;100934.12;;;32.13;30.43
51617;BME280;37697;52.588;13.394;2022-08-03T17:21:30;100928.78;;;31.99;31.16
51617;BME280;37697;52.588;13.394;2022-08-03T17:26:33;100937.70;;;31.77;31.04
51617;BME280;37697;52.588;13.394;2022-08-03T17:31:38;100948.52;;;31.32;32.16
51617;BME280;37697;52.588;13.394;2022-08-03T17:36:43;100950.55;;;31.15;32.35
51617;BME280;37697;52.588;13.394;2022-08-03T17:41:44;100948.23;;;31.10;32.47
51617;BME280;37697;52.588;13.394;2022-08-03T17:46:44;100949.34;;;30.96;33.28
51617;BME280;37697;52.588;13.394;2022-08-03T17:52:03;100950.41;;;30.74;34.33
51617;BME280;37697;52.588;13.394;2022-08-03T18:02:44;100958.83;;;30.26;35.85
51617;BME280;37697;52.588;13.394;2022-08-03T18:08:07;100954.41;;;30.13;36.25
51617;BME280;37697;52.588;13.394;2022-08-03T18:13:13;100948.11;;;30.02;36.77
51617;BME280;37697;52.588;13.394;2022-08-03T18:18:17;100957.50;;;29.87;37.42
51617;BME280;37697;52.588;13.394;2022-08-03T18:23:20;100959.56;;;29.71;37.88
51617;BME280;37697;52.588;13.394;2022-08-03T18:28:21;100957.50;;;29.48;38.33
51617;BME280;37697;52.588;13.394;2022-08-03T18:33:25;100961.66;;;29.28;39.02
51617;BME280;37697;52.588;13.394;2022-08-03T18:38:27;100960.84;;;29.12;39.31
51617;BME280;37697;52.588;13.394;2022-08-03T18:43:29;100961.02;;;28.98;39.82
51617;BME280;37697;52.588;13.394;2022-08-03T18:48:34;100962.67;;;28.80;40.20
51617;BME280;37697;52.588;13.394;2022-08-03T18:54:10;100965.94;;;28.63;40.83
51617;BME280;37697;52.588;13.394;2022-08-03T18:59:27;100965.95;;;28.40;41.12
51617;BME280;37697;52.588;13.394;2022-08-03T19:04:46;100967.39;;;28.17;41.41
51617;BME280;37697;52.588;13.394;2022-08-03T19:09:53;100973.84;;;27.99;41.88
51617;BME280;37697;52.588;13.394;2022-08-03T19:15:11;100971.73;;;27.80;42.40
51617;BME280;37697;52.588;13.394;2022-08-03T19:20:24;100975.53;;;27.59;42.59
51617;BME280;37697;52.588;13.394;2022-08-03T19:25:27;100983.23;;;27.22;43.19
51617;BME280;37697;52.588;13.394;2022-08-03T19:30:31;100990.59;;;27.01;43.56
51617;BME280;37697;52.588;13.394;2022-08-03T19:35:45;100986.22;;;26.90;44.21
51617;BME280;37697;52.588;13.394;2022-08-03T19:40:48;100991.90;;;26.75;44.59
51617;BME280;37697;52.588;13.394;2022-08-03T19:45:51;100992.55;;;26.57;45.10
51617;BME280;37697;52.588;13.394;2022-08-03T19:50:56;100990.17;;;26.37;45.42
51617;BME280;37697;52.588;13.394;2022-08-03T19:55:58;100992.62;;;26.28;45.80
51617;BME280;37697;52.588;13.394;2022-08-03T20:01:03;100986.98;;;26.17;46.15
51617;BME280;37697;52.588;13.394;2022-08-03T20:06:05;100983.98;;;25.95;46.60
51617;BME280;37697;52.588;13.394;2022-08-03T20:11:08;100981.31;;;25.81;46.94
51617;BME280;37697;52.588;13.394;2022-08-03T20:16:09;100981.09;;;25.66;47.40
51617;BME280;37697;52.588;13.394;2022-08-03T20:21:13;100971.42;;;25.49;47.67
51617;BME280;37697;52.588;13.394;2022-08-03T20:26:17;100978.80;;;25.22;48.21
51617;BME280;37697;52.588;13.394;2022-08-03T20:31:19;100971.91;;;25.12;48.58
51617;BME280;37697;52.588;13.394;2022-08-03T20:36:20;100970.47;;;25.02;48.73
51617;BME280;37697;52.588;13.394;2022-08-03T20:41:21;100975.06;;;24.93;49.06
51617;BME280;37697;52.588;13.394;2022-08-03T20:46:22;100973.17;;;24.73;49.20
51617;BME280;37697;52.588;13.394;2022-08-03T20:51:25;100977.35;;;24.62;49.58
51617;BME280;37697;52.588;13.394;2022-08-03T20:56:29;100980.86;;;24.48;49.81
51617;BME280;37697;52.588;13.394;2022-08-03T21:01:35;100982.00;;;24.40;50.34
51617;BME280;37697;52.588;13.394;2022-08-03T21:06:41;100981.50;;;24.23;50.59
51617;BME280;37697;52.588;13.394;2022-08-03T21:11:49;100977.62;;;24.15;51.05
51617;BME280;37697;52.588;13.394;2022-08-03T21:16:50;100975.45;;;23.94;51.13
51617;BME280;37697;52.588;13.394;2022-08-03T21:21:54;100980.77;;;23.82;51.61
51617;BME280;37697;52.588;13.394;2022-08-03T21:26:55;100980.08;;;23.75;51.97
51617;BME280;37697;52.588;13.394;2022-08-03T21:31:57;100984.84;;;23.68;52.18
51617;BME280;37697;52.588;13.394;2022-08-03T21:37:01;100981.35;;;23.61;52.59
51617;BME280;37697;52.588;13.394;2022-08-03T21:42:02;100978.86;;;23.52;52.77
51617;BME280;37697;52.588;13.394;2022-08-03T21:47:06;100976.17;;;23.42;53.06
51617;BME280;37697;52.588;13.394;2022-08-03T21:52:10;100982.25;;;23.31;53.30
51617;BME280;37697;52.588;13.394;2022-08-03T21:57:17;100973.33;;;23.22;53.59
51617;BME280;37697;52.588;13.394;2022-08-03T22:02:23;100971.02;;;23.11;53.80
51617;BME280;37697;52.588;13.394;2022-08-03T22:07:27;100980.08;;;23.00;54.04
51617;BME280;37697;52.588;13.394;2022-08-03T22:12:29;100977.80;;;22.93;54.29
51617;BME280;37697;52.588;13.394;2022-08-03T22:17:32;100981.09;;;22.85;54.48
51617;BME280;37697;52.588;13.394;2022-08-03T22:22:36;100982.20;;;22.77;54.70
51617;BME280;37697;52.588;13.394;2022-08-03T22:27:40;100985.07;;;22.67;55.00
51617;BME280;37697;52.588;13.394;2022-08-03T22:32:44;100997.18;;;22.58;55.24
51617;BME280;37697;52.588;13.394;2022-08-03T22:37:48;100998.26;;;22.49;55.50
51617;BME280;37697;52.588;13.394;2022-08-03T22:42:50;101001.70;;;22.39;55.72
51617;BME280;37697;52.588;13.394;2022-08-03T22:47:53;100999.95;;;22.27;56.08
51617;BME280;37697;52.588;13.394;2022-08-03T22:52:55;100995.98;;;22.19;56.34
51617;BME280;37697;52.588;13.394;2022-08-03T22:57:56;101001.62;;;22.09;56.60
51617;BME280;37697;52.588;13.394;2022-08-03T23:02:59;100980.67;;;21.89;56.83
51617;BME280;37697;52.588;13.394;2022-08-03T23:08:02;101002.56;;;21.93;57.03
51617;BME280;37697;52.588;13.394;2022-08-03T23:13:04;101008.64;;;21.86;57.07
51617;BME280;37697;52.588;13.394;2022-08-03T23:18:06;100999.08;;;21.77;57.28
51617;BME280;37697;52.588;13.394;2022-08-03T23:23:07;100997.20;;;21.62;57.78
51617;BME280;37697;52.588;13.394;2022-08-03T23:28:13;101001.14;;;21.57;58.08
51617;BME280;37697;52.588;13.394;2022-08-03T23:33:16;100999.75;;;21.47;58.31
51617;BME280;37697;52.588;13.394;2022-08-03T23:38:18;101002.45;;;21.44;58.56
51617;BME280;37697;52.588;13.394;2022-08-03T23:43:21;100996.78;;;21.40;58.74
51617;BME280;37697;52.588;13.394;2022-08-03T23:48:27;100999.95;;;21.38;59.00
51617;BME280;37697;52.588;13.394;2022-08-03T23:53:33;100994.52;;;21.36;59.17
51617;BME280;37697;52.588;13.394;2022-08-03T23:58:46;100994.81;;;21.31;59.44
